sensor_id;sensor_type;location;lat;lon;timestamp;temperature;humidity
25302;DHT22;13243;50.888;4.724;2024-03-08T00:02:48;6.40;99.90
25302;DHT22;13243;50.888;4.724;2024-03-08T00:07:53;6.30;99.90
25302;DHT22;13243;50.888;4.724;2024-03-08T00:12:55;6.30;99.90
25302;DHT22;13243;50.888;4.724;2024-03-08T00:17:57;6.20;99.90
25302;DHT22;13243;50.888;4.724;2024-03-08T00:22:59;6.10;99.90
25302;DHT22;13243;50.888;4.724;2024-03-08T00:28:01;6.00;99.90
25302;DHT22;13243;50.888;4.724;2024-03-08T00:33:03;6.00;99.90
25302;DHT22;13243;50.888;4.724;2024-03-08T00:38:05;6.00;99.90
25302;DHT22;13243;50.888;4.724;2024-03-08T00:43:07;5.90;99.90
25302;DHT22;13243;50.888;4.724;2024-03-08T00:48:09;5.90;99.90
25302;DHT22;13243;50.888;4.724;2024-03-08T00:53:12;5.90;99.90
25302;DHT22;13243;50.888;4.724;2024-03-08T00:58:15;5.90;99.90
25302;DHT22;13243;50.888;4.724;2024-03-08T01:03:17;5.90;99.90
25302;DHT22;13243;50.888;4.724;2024-03-08T01:08:19;5.90;99.90
25302;DHT22;13243;50.888;4.724;2024-03-08T01:13:21;5.70;99.90
25302;DHT22;13243;50.888;4.724;2024-03-08T01:18:23;5.80;99.90
25302;DHT22;13243;50.888;4.724;2024-03-08T01:23:25;5.60;99.90
25302;DHT22;13243;50.888;4.724;2024-03-08T01:28:27;5.60;99.90
25302;DHT22;13243;50.888;4.724;2024-03-08T01:33:29;5.60;99.90
25302;DHT22;13243;50.888;4.724;2024-03-08T01:38:32;5.60;99.90
25302;DHT22;13243;50.888;4.724;2024-03-08T01:43:34;5.60;99.90
25302;DHT22;13243;50.888;4.724;2024-03-08T01:48:36;5.60;99.90
25302;DHT22;13243;50.888;4.724;2024-03-08T01:53:39;5.50;99.90
25302;DHT22;13243;50.888;4.724;2024-03-08T01:58:42;5.50;99.90
25302;DHT22;13243;50.888;4.724;2024-03-08T02:03:49;5.40;99.90
25302;DHT22;13243;50.888;4.724;2024-03-08T02:08:51;5.40;99.90
25302;DHT22;13243;50.888;4.724;2024-03-08T02:13:53;5.30;99.90
25302;DHT22;13243;50.888;4.724;2024-03-08T02:18:56;5.20;99.90
25302;DHT22;13243;50.888;4.724;2024-03-08T02:23:58;5.20;99.90
25302;DHT22;13243;50.888;4.724;2024-03-08T02:29:01;5.10;99.90
25302;DHT22;13243;50.888;4.724;2024-03-08T02:34:03;5.10;99.90
25302;DHT22;13243;50.888;4.724;2024-03-08T02:39:06;5.00;99.90
25302;DHT22;13243;50.888;4.724;2024-03-08T02:44:08;5.00;99.90
25302;DHT22;13243;50.888;4.724;2024-03-08T02:49:10;4.90;99.90
25302;DHT22;13243;50.888;4.724;2024-03-08T02:54:13;4.90;99.90
25302;DHT22;13243;50.888;4.724;2024-03-08T02:59:15;4.90;99.90
25302;DHT22;13243;50.888;4.724;2024-03-08T03:04:19;4.70;99.90
25302;DHT22;13243;50.888;4.724;2024-03-08T03:09:21;4.80;99.90
25302;DHT22;13243;50.888;4.724;2024-03-08T03:14:29;4.70;99.90
25302;DHT22;13243;50.888;4.724;2024-03-08T03:19:31;4.70;99.90
25302;DHT22;13243;50.888;4.724;2024-03-08T03:24:33;4.70;99.90
25302;DHT22;13243;50.888;4.724;2024-03-08T03:29:35;4.70;99.90
25302;DHT22;13243;50.888;4.724;2024-03-08T03:34:37;4.60;99.90
25302;DHT22;13243;50.888;4.724;2024-03-08T03:39:39;4.50;99.90
25302;DHT22;13243;50.888;4.724;2024-03-08T03:44:50;4.50;99.90
25302;DHT22;13243;50.888;4.724;2024-03-08T03:49:52;4.30;99.90
25302;DHT22;13243;50.888;4.724;2024-03-08T03:54:55;4.40;99.90
25302;DHT22;13243;50.888;4.724;2024-03-08T03:59:58;4.30;99.90
25302;DHT22;13243;50.888;4.724;2024-03-08T04:05:00;4.40;99.90
25302;DHT22;13243;50.888;4.724;2024-03-08T04:10:03;4.30;99.90
25302;DHT22;13243;50.888;4.724;2024-03-08T04:15:05;4.30;99.90
25302;DHT22;13243;50.888;4.724;2024-03-08T04:20:13;4.20;99.90
25302;DHT22;13243;50.888;4.724;2024-03-08T04:25:17;4.20;99.90
25302;DHT22;13243;50.888;4.724;2024-03-08T04:30:19;4.20;99.90
25302;DHT22;13243;50.888;4.724;2024-03-08T04:35:23;4.20;99.90
25302;DHT22;13243;50.888;4.724;2024-03-08T04:40:25;4.10;99.90
25302;DHT22;13243;50.888;4.724;2024-03-08T04:45:27;4.10;99.90
25302;DHT22;13243;50.888;4.724;2024-03-08T04:50:29;4.00;99.90
25302;DHT22;13243;50.888;4.724;2024-03-08T04:55:31;4.00;99.90
25302;DHT22;13243;50.888;4.724;2024-03-08T05:00:33;4.00;99.90
25302;DHT22;13243;50.888;4.724;2024-03-08T05:05:35;3.80;99.90
25302;DHT22;13243;50.888;4.724;2024-03-08T05:10:38;3.90;99.90
25302;DHT22;13243;50.888;4.724;2024-03-08T05:15:40;3.90;99.90
25302;DHT22;13243;50.888;4.724;2024-03-08T05:20:41;3.90;99.90
25302;DHT22;13243;50.888;4.724;2024-03-08T05:25:43;3.80;99.90
25302;DHT22;13243;50.888;4.724;2024-03-08T05:30:45;3.80;99.90
25302;DHT22;13243;50.888;4.724;2024-03-08T05:35:47;3.70;99.90
25302;DHT22;13243;50.888;4.724;2024-03-08T05:40:50;3.70;99.90
25302;DHT22;13243;50.888;4.724;2024-03-08T05:45:53;4.20;99.90
25302;DHT22;13243;50.888;4.724;2024-03-08T05:50:55;3.70;99.90
25302;DHT22;13243;50.888;4.724;2024-03-08T05:55:59;3.70;99.90
25302;DHT22;13243;50.888;4.724;2024-03-08T06:01:01;3.80;99.90
25302;DHT22;13243;50.888;4.724;2024-03-08T06:06:03;3.70;99.90
25302;DHT22;13243;50.888;4.724;2024-03-08T06:11:05;3.70;99.90
25302;DHT22;13243;50.888;4.724;2024-03-08T06:16:10;3.70;99.90
25302;DHT22;13243;50.888;4.724;2024-03-08T06:21:12;3.60;99.90
25302;DHT22;13243;50.888;4.724;2024-03-08T06:26:14;3.60;99.90
25302;DHT22;13243;50.888;4.724;2024-03-08T06:31:16;3.70;99.90
25302;DHT22;13243;50.888;4.724;2024-03-08T06:36:19;3.60;99.90
25302;DHT22;13243;50.888;4.724;2024-03-08T06:41:24;3.70;99.90
25302;DHT22;13243;50.888;4.724;2024-03-08T06:46:26;3.70;99.90
25302;DHT22;13243;50.888;4.724;2024-03-08T06:51:29;3.60;99.90
25302;DHT22;13243;50.888;4.724;2024-03-08T06:56:31;3.60;99.90
25302;DHT22;13243;50.888;4.724;2024-03-08T07:01:32;3.80;99.90
25302;DHT22;13243;50.888;4.724;2024-03-08T07:06:36;3.80;99.90
25302;DHT22;13243;50.888;4.724;2024-03-08T07:11:38;3.80;99.90
25302;DHT22;13243;50.888;4.724;2024-03-08T07:16:43;4.00;99.90
25302;DHT22;13243;50.888;4.724;2024-03-08T07:21:46;3.90;99.90
25302;DHT22;13243;50.888;4.724;2024-03-08T07:26:49;4.10;99.90
25302;DHT22;13243;50.888;4.724;2024-03-08T07:31:53;4.20;99.90
25302;DHT22;13243;50.888;4.724;2024-03-08T07:37:05;4.30;99.90
25302;DHT22;13243;50.888;4.724;2024-03-08T07:42:09;4.40;99.90
25302;DHT22;13243;50.888;4.724;2024-03-08T07:47:12;4.40;99.90
25302;DHT22;13243;50.888;4.724;2024-03-08T07:52:14;4.70;99.90
25302;DHT22;13243;50.888;4.724;2024-03-08T07:57:17;4.70;99.90
25302;DHT22;13243;50.888;4.724;2024-03-08T08:02:19;4.90;99.90
25302;DHT22;13243;50.888;4.724;2024-03-08T08:07:21;5.00;99.90
25302;DHT22;13243;50.888;4.724;2024-03-08T08:12:24;5.20;99.90
25302;DHT22;13243;50.888;4.724;2024-03-08T08:17:27;5.30;99.90
25302;DHT22;13243;50.888;4.724;2024-03-08T08:22:28;5.40;99.90
25302;DHT22;13243;50.888;4.724;2024-03-08T08:27:30;5.50;99.90
25302;DHT22;13243;50.888;4.724;2024-03-08T08:32:32;5.70;99.90
25302;DHT22;13243;50.888;4.724;2024-03-08T08:37:35;5.80;99.90
25302;DHT22;13243;50.888;4.724;2024-03-08T08:42:40;6.20;99.90
25302;DHT22;13243;50.888;4.724;2024-03-08T08:47:43;6.20;99.90
25302;DHT22;13243;50.888;4.724;2024-03-08T08:52:47;6.30;99.90
25302;DHT22;13243;50.888;4.724;2024-03-08T08:57:49;6.50;99.90
25302;DHT22;13243;50.888;4.724;2024-03-08T09:02:52;6.60;99.90
25302;DHT22;13243;50.888;4.724;2024-03-08T09:07:56;6.70;99.90
25302;DHT22;13243;50.888;4.724;2024-03-08T09:12:59;6.80;99.90
25302;DHT22;13243;50.888;4.724;2024-03-08T09:18:02;7.20;99.90
25302;DHT22;13243;50.888;4.724;2024-03-08T09:23:04;7.20;99.90
25302;DHT22;13243;50.888;4.724;2024-03-08T09:28:06;7.30;99.90
25302;DHT22;13243;50.888;4.724;2024-03-08T09:33:08;7.60;99.90
25302;DHT22;13243;50.888;4.724;2024-03-08T09:38:11;7.80;99.90
25302;DHT22;13243;50.888;4.724;2024-03-08T09:43:14;7.90;99.90
25302;DHT22;13243;50.888;4.724;2024-03-08T09:48:17;7.90;99.90
25302;DHT22;13243;50.888;4.724;2024-03-08T09:53:20;8.20;99.90
25302;DHT22;13243;50.888;4.724;2024-03-08T09:58:24;8.20;99.90
25302;DHT22;13243;50.888;4.724;2024-03-08T10:03:35;8.50;99.90
25302;DHT22;13243;50.888;4.724;2024-03-08T10:08:37;8.80;99.90
25302;DHT22;13243;50.888;4.724;2024-03-08T10:13:39;8.90;99.90
25302;DHT22;13243;50.888;4.724;2024-03-08T10:18:42;8.90;99.90
25302;DHT22;13243;50.888;4.724;2024-03-08T10:23:45;8.90;99.90
25302;DHT22;13243;50.888;4.724;2024-03-08T10:28:48;9.00;99.90
25302;DHT22;13243;50.888;4.724;2024-03-08T10:33:50;9.20;99.90
25302;DHT22;13243;50.888;4.724;2024-03-08T10:38:52;9.70;99.90
25302;DHT22;13243;50.888;4.724;2024-03-08T10:44:12;9.60;99.90
25302;DHT22;13243;50.888;4.724;2024-03-08T10:49:26;9.90;99.90
25302;DHT22;13243;50.888;4.724;2024-03-08T10:54:36;9.90;99.90
25302;DHT22;13243;50.888;4.724;2024-03-08T10:59:49;9.90;99.90
25302;DHT22;13243;50.888;4.724;2024-03-08T11:04:51;10.10;99.90
25302;DHT22;13243;50.888;4.724;2024-03-08T11:09:55;10.30;99.90
25302;DHT22;13243;50.888;4.724;2024-03-08T11:15:16;10.50;99.90
25302;DHT22;13243;50.888;4.724;2024-03-08T11:20:23;10.50;99.90
25302;DHT22;13243;50.888;4.724;2024-03-08T11:30:39;10.90;99.90
25302;DHT22;13243;50.888;4.724;2024-03-08T11:35:42;11.30;99.90
25302;DHT22;13243;50.888;4.724;2024-03-08T11:40:47;11.20;99.90
25302;DHT22;13243;50.888;4.724;2024-03-08T11:46:07;11.40;99.90
25302;DHT22;13243;50.888;4.724;2024-03-08T11:51:11;11.50;99.90
25302;DHT22;13243;50.888;4.724;2024-03-08T11:56:14;11.80;99.90
25302;DHT22;13243;50.888;4.724;2024-03-08T12:01:16;11.80;99.90
25302;DHT22;13243;50.888;4.724;2024-03-08T12:06:18;11.90;99.90
25302;DHT22;13243;50.888;4.724;2024-03-08T12:11:20;12.40;99.90
25302;DHT22;13243;50.888;4.724;2024-03-08T12:16:25;12.10;99.90
25302;DHT22;13243;50.888;4.724;2024-03-08T12:21:28;12.20;99.90
25302;DHT22;13243;50.888;4.724;2024-03-08T12:26:31;12.70;99.90
25302;DHT22;13243;50.888;4.724;2024-03-08T12:31:34;13.10;99.90
25302;DHT22;13243;50.888;4.724;2024-03-08T12:36:37;13.20;99.90
25302;DHT22;13243;50.888;4.724;2024-03-08T12:41:40;13.10;99.90
25302;DHT22;13243;50.888;4.724;2024-03-08T12:46:44;13.40;99.90
25302;DHT22;13243;50.888;4.724;2024-03-08T12:51:46;13.10;99.90
25302;DHT22;13243;50.888;4.724;2024-03-08T12:56:48;13.60;99.90
25302;DHT22;13243;50.888;4.724;2024-03-08T13:01:51;13.80;99.90
25302;DHT22;13243;50.888;4.724;2024-03-08T13:06:56;13.50;99.90
25302;DHT22;13243;50.888;4.724;2024-03-08T13:11:58;13.80;99.90
25302;DHT22;13243;50.888;4.724;2024-03-08T13:17:02;13.80;99.90
25302;DHT22;13243;50.888;4.724;2024-03-08T13:22:06;14.10;99.90
25302;DHT22;13243;50.888;4.724;2024-03-08T13:27:08;14.60;99.90
25302;DHT22;13243;50.888;4.724;2024-03-08T13:32:23;14.80;99.90
25302;DHT22;13243;50.888;4.724;2024-03-08T13:37:27;14.90;99.90
25302;DHT22;13243;50.888;4.724;2024-03-08T13:42:29;15.20;99.90
25302;DHT22;13243;50.888;4.724;2024-03-08T13:47:31;15.30;99.90
25302;DHT22;13243;50.888;4.724;2024-03-08T13:52:33;15.40;99.90
25302;DHT22;13243;50.888;4.724;2024-03-08T13:57:36;15.60;99.90
25302;DHT22;13243;50.888;4.724;2024-03-08T14:02:38;15.50;99.90
25302;DHT22;13243;50.888;4.724;2024-03-08T14:07:42;15.60;99.90
25302;DHT22;13243;50.888;4.724;2024-03-08T14:12:44;16.00;99.90
25302;DHT22;13243;50.888;4.724;2024-03-08T14:17:52;16.50;99.90
25302;DHT22;13243;50.888;4.724;2024-03-08T14:22:55;16.10;99.90
25302;DHT22;13243;50.888;4.724;2024-03-08T14:27:58;16.50;99.90
25302;DHT22;13243;50.888;4.724;2024-03-08T14:33:04;16.90;99.90
25302;DHT22;13243;50.888;4.724;2024-03-08T14:38:11;16.80;99.90
25302;DHT22;13243;50.888;4.724;2024-03-08T14:43:14;17.00;99.90
25302;DHT22;13243;50.888;4.724;2024-03-08T14:48:18;17.30;99.90
25302;DHT22;13243;50.888;4.724;2024-03-08T14:53:20;17.40;99.90
25302;DHT22;13243;50.888;4.724;2024-03-08T14:58:22;16.70;99.90
25302;DHT22;13243;50.888;4.724;2024-03-08T15:03:26;17.20;99.90
25302;DHT22;13243;50.888;4.724;2024-03-08T15:08:28;17.30;99.90
25302;DHT22;13243;50.888;4.724;2024-03-08T15:13:30;17.60;99.90
25302;DHT22;13243;50.888;4.724;2024-03-08T15:18:44;18.10;99.90
25302;DHT22;13243;50.888;4.724;2024-03-08T15:23:53;18.30;99.90
25302;DHT22;13243;50.888;4.724;2024-03-08T15:28:56;18.50;99.90
25302;DHT22;13243;50.888;4.724;2024-03-08T15:33:58;18.60;99.90
25302;DHT22;13243;50.888;4.724;2024-03-08T15:39:03;18.40;99.90
25302;DHT22;13243;50.888;4.724;2024-03-08T15:44:04;18.10;99.90
25302;DHT22;13243;50.888;4.724;2024-03-08T15:49:07;18.20;99.90
25302;DHT22;13243;50.888;4.724;2024-03-08T15:54:10;18.40;99.90
25302;DHT22;13243;50.888;4.724;2024-03-08T15:59:12;18.30;99.90
25302;DHT22;13243;50.888;4.724;2024-03-08T16:04:14;18.40;99.90
25302;DHT22;13243;50.888;4.724;2024-03-08T16:09:16;18.20;99.90
25302;DHT22;13243;50.888;4.724;2024-03-08T16:14:18;18.20;99.90
25302;DHT22;13243;50.888;4.724;2024-03-08T16:19:22;17.90;99.90
25302;DHT22;13243;50.888;4.724;2024-03-08T16:24:24;18.00;99.90
25302;DHT22;13243;50.888;4.724;2024-03-08T16:29:26;18.00;99.90
25302;DHT22;13243;50.888;4.724;2024-03-08T16:34:28;17.50;99.90
25302;DHT22;13243;50.888;4.724;2024-03-08T16:39:30;17.30;99.90
25302;DHT22;13243;50.888;4.724;2024-03-08T16:44:32;17.40;99.90
25302;DHT22;13243;50.888;4.724;2024-03-08T16:49:34;17.40;99.90
25302;DHT22;13243;50.888;4.724;2024-03-08T16:54:36;15.70;99.90
25302;DHT22;13243;50.888;4.724;2024-03-08T16:59:52;14.90;99.90
25302;DHT22;13243;50.888;4.724;2024-03-08T17:04:54;14.50;99.90
25302;DHT22;13243;50.888;4.724;2024-03-08T17:09:56;14.00;99.90
25302;DHT22;13243;50.888;4.724;2024-03-08T17:14:59;13.70;99.90
25302;DHT22;13243;50.888;4.724;2024-03-08T17:20:03;13.50;99.90
25302;DHT22;13243;50.888;4.724;2024-03-08T17:25:13;13.20;99.90
25302;DHT22;13243;50.888;4.724;2024-03-08T17:30:17;13.10;99.90
25302;DHT22;13243;50.888;4.724;2024-03-08T17:35:30;12.80;99.90
25302;DHT22;13243;50.888;4.724;2024-03-08T17:40:33;12.50;99.90
25302;DHT22;13243;50.888;4.724;2024-03-08T17:45:40;12.50;99.90
25302;DHT22;13243;50.888;4.724;2024-03-08T17:50:47;12.40;99.90
25302;DHT22;13243;50.888;4.724;2024-03-08T17:55:52;12.10;99.90
25302;DHT22;13243;50.888;4.724;2024-03-08T18:00:56;12.00;99.90
25302;DHT22;13243;50.888;4.724;2024-03-08T18:05:58;11.70;99.90
25302;DHT22;13243;50.888;4.724;2024-03-08T18:11:00;11.70;99.90
25302;DHT22;13243;50.888;4.724;2024-03-08T18:16:02;11.70;99.90
25302;DHT22;13243;50.888;4.724;2024-03-08T18:21:04;11.60;99.90
25302;DHT22;13243;50.888;4.724;2024-03-08T18:26:07;11.40;99.90
25302;DHT22;13243;50.888;4.724;2024-03-08T18:31:09;11.40;99.90
25302;DHT22;13243;50.888;4.724;2024-03-08T18:36:11;11.30;99.90
25302;DHT22;13243;50.888;4.724;2024-03-08T18:41:13;11.00;99.90
25302;DHT22;13243;50.888;4.724;2024-03-08T18:46:15;11.10;99.90
25302;DHT22;13243;50.888;4.724;2024-03-08T18:51:17;11.00;99.90
25302;DHT22;13243;50.888;4.724;2024-03-08T18:56:19;10.90;99.90
25302;DHT22;13243;50.888;4.724;2024-03-08T19:01:21;10.80;99.90
25302;DHT22;13243;50.888;4.724;2024-03-08T19:06:27;10.70;99.90
25302;DHT22;13243;50.888;4.724;2024-03-08T19:11:32;10.60;99.90
25302;DHT22;13243;50.888;4.724;2024-03-08T19:16:34;10.50;99.90
25302;DHT22;13243;50.888;4.724;2024-03-08T19:21:42;10.40;99.90
25302;DHT22;13243;50.888;4.724;2024-03-08T19:26:46;10.30;99.90
25302;DHT22;13243;50.888;4.724;2024-03-08T19:31:50;10.20;99.90
25302;DHT22;13243;50.888;4.724;2024-03-08T19:36:53;10.20;99.90
25302;DHT22;13243;50.888;4.724;2024-03-08T19:41:55;10.10;99.90
25302;DHT22;13243;50.888;4.724;2024-03-08T19:46:57;10.00;99.90
25302;DHT22;13243;50.888;4.724;2024-03-08T19:51:59;10.00;99.90
25302;DHT22;13243;50.888;4.724;2024-03-08T19:57:01;10.00;99.90
25302;DHT22;13243;50.888;4.724;2024-03-08T20:02:09;10.00;99.90
25302;DHT22;13243;50.888;4.724;2024-03-08T20:07:11;9.90;99.90
25302;DHT22;13243;50.888;4.724;2024-03-08T20:12:14;9.80;99.90
25302;DHT22;13243;50.888;4.724;2024-03-08T20:17:18;9.80;99.90
25302;DHT22;13243;50.888;4.724;2024-03-08T20:22:20;9.90;99.90
25302;DHT22;13243;50.888;4.724;2024-03-08T20:27:24;9.90;99.90
25302;DHT22;13243;50.888;4.724;2024-03-08T20:32:28;9.90;99.90
25302;DHT22;13243;50.888;4.724;2024-03-08T20:37:30;10.00;99.90
25302;DHT22;13243;50.888;4.724;2024-03-08T20:42:32;10.00;99.90
25302;DHT22;13243;50.888;4.724;2024-03-08T20:47:35;10.10;99.90
25302;DHT22;13243;50.888;4.724;2024-03-08T20:52:43;10.00;99.90
25302;DHT22;13243;50.888;4.724;2024-03-08T20:57:45;9.90;99.90
25302;DHT22;13243;50.888;4.724;2024-03-08T21:02:47;10.00;99.90
25302;DHT22;13243;50.888;4.724;2024-03-08T21:07:50;10.00;99.90
25302;DHT22;13243;50.888;4.724;2024-03-08T21:12:53;10.00;99.90
25302;DHT22;13243;50.888;4.724;2024-03-08T21:17:56;10.00;99.90
25302;DHT22;13243;50.888;4.724;2024-03-08T21:22:59;9.90;99.90
25302;DHT22;13243;50.888;4.724;2024-03-08T21:28:02;9.90;99.90
25302;DHT22;13243;50.888;4.724;2024-03-08T21:33:08;9.90;99.90
25302;DHT22;13243;50.888;4.724;2024-03-08T21:38:13;9.90;99.90
25302;DHT22;13243;50.888;4.724;2024-03-08T21:43:16;9.80;99.90
25302;DHT22;13243;50.888;4.724;2024-03-08T21:48:18;9.90;99.90
25302;DHT22;13243;50.888;4.724;2024-03-08T21:53:20;9.80;99.90
25302;DHT22;13243;50.888;4.724;2024-03-08T21:58:34;9.80;99.90
25302;DHT22;13243;50.888;4.724;2024-03-08T22:03:36;9.70;99.90
25302;DHT22;13243;50.888;4.724;2024-03-08T22:08:39;9.60;99.90
25302;DHT22;13243;50.888;4.724;2024-03-08T22:13:44;9.50;99.90
25302;DHT22;13243;50.888;4.724;2024-03-08T22:18:50;9.50;99.90
25302;DHT22;13243;50.888;4.724;2024-03-08T22:23:51;9.50;99.90
25302;DHT22;13243;50.888;4.724;2024-03-08T22:28:53;9.50;99.90
25302;DHT22;13243;50.888;4.724;2024-03-08T22:33:55;9.50;99.90
25302;DHT22;13243;50.888;4.724;2024-03-08T22:38:57;9.40;99.90
25302;DHT22;13243;50.888;4.724;2024-03-08T22:43:59;9.30;99.90
25302;DHT22;13243;50.888;4.724;2024-03-08T22:49:01;9.20;99.90
25302;DHT22;13243;50.888;4.724;2024-03-08T22:54:05;9.30;99.90
25302;DHT22;13243;50.888;4.724;2024-03-08T22:59:07;9.30;99.90
25302;DHT22;13243;50.888;4.724;2024-03-08T23:04:09;9.30;99.90
25302;DHT22;13243;50.888;4.724;2024-03-08T23:09:13;9.30;99.90
25302;DHT22;13243;50.888;4.724;2024-03-08T23:14:15;9.40;99.90
25302;DHT22;13243;50.888;4.724;2024-03-08T23:19:17;9.40;99.90
25302;DHT22;13243;50.888;4.724;2024-03-08T23:24:19;9.30;99.90
25302;DHT22;13243;50.888;4.724;2024-03-08T23:29:21;9.30;99.90
25302;DHT22;13243;50.888;4.724;2024-03-08T23:34:23;9.30;99.90
25302;DHT22;13243;50.888;4.724;2024-03-08T23:39:26;9.30;99.90
25302;DHT22;13243;50.888;4.724;2024-03-08T23:44:28;9.30;99.90
25302;DHT22;13243;50.888;4.724;2024-03-08T23:49:31;9.30;99.90
25302;DHT22;13243;50.888;4.724;2024-03-08T23:54:33;9.20;99.90
25302;DHT22;13243;50.888;4.724;2024-03-08T23:59:35;9.20;99.90
